sensor_id;sensor_type;location;lat;lon;timestamp;temperature;humidity
54642;DHT22;40536;53.194;5.728;2022-11-12T00:00:34;8.20;99.90
54642;DHT22;40536;53.194;5.728;2022-11-12T00:03:01;8.50;99.90
54642;DHT22;40536;53.194;5.728;2022-11-12T00:05:31;8.40;99.90
54642;DHT22;40536;53.194;5.728;2022-11-12T00:07:56;7.30;99.90
54642;DHT22;40536;53.194;5.728;2022-11-12T00:10:22;7.30;99.90
54642;DHT22;40536;53.194;5.728;2022-11-12T00:12:48;8.40;99.90
54642;DHT22;40536;53.194;5.728;2022-11-12T00:15:14;7.20;99.90
54642;DHT22;40536;53.194;5.728;2022-11-12T00:17:41;8.40;99.90
54642;DHT22;40536;53.194;5.728;2022-11-12T00:20:07;7.20;99.90
54642;DHT22;40536;53.194;5.728;2022-11-12T00:22:33;7.10;99.90
54642;DHT22;40536;53.194;5.728;2022-11-12T00:24:58;8.30;99.90
54642;DHT22;40536;53.194;5.728;2022-11-12T00:27:24;7.10;99.90
54642;DHT22;40536;53.194;5.728;2022-11-12T00:29:50;7.10;99.90
54642;DHT22;40536;53.194;5.728;2022-11-12T00:32:15;7.20;99.90
54642;DHT22;40536;53.194;5.728;2022-11-12T00:37:07;6.80;99.90
54642;DHT22;40536;53.194;5.728;2022-11-12T00:39:33;8.20;99.90
54642;DHT22;40536;53.194;5.728;2022-11-12T00:41:59;6.70;99.90
54642;DHT22;40536;53.194;5.728;2022-11-12T00:44:26;6.60;99.90
54642;DHT22;40536;53.194;5.728;2022-11-12T00:46:54;6.60;99.90
54642;DHT22;40536;53.194;5.728;2022-11-12T00:49:20;7.10;99.90
54642;DHT22;40536;53.194;5.728;2022-11-12T00:51:45;6.60;99.90
54642;DHT22;40536;53.194;5.728;2022-11-12T00:54:11;6.50;99.90
54642;DHT22;40536;53.194;5.728;2022-11-12T00:56:37;6.60;99.90
54642;DHT22;40536;53.194;5.728;2022-11-12T00:59:02;6.60;99.90
54642;DHT22;40536;53.194;5.728;2022-11-12T01:01:28;8.10;99.90
54642;DHT22;40536;53.194;5.728;2022-11-12T01:03:58;6.90;99.90
54642;DHT22;40536;53.194;5.728;2022-11-12T01:06:24;6.50;99.90
54642;DHT22;40536;53.194;5.728;2022-11-12T01:08:51;6.50;99.90
54642;DHT22;40536;53.194;5.728;2022-11-12T01:11:22;7.90;99.90
54642;DHT22;40536;53.194;5.728;2022-11-12T01:13:59;6.50;99.90
54642;DHT22;40536;53.194;5.728;2022-11-12T01:16:28;6.30;99.90
54642;DHT22;40536;53.194;5.728;2022-11-12T01:18:56;6.30;99.90
54642;DHT22;40536;53.194;5.728;2022-11-12T01:21:30;6.20;99.90
54642;DHT22;40536;53.194;5.728;2022-11-12T01:23:57;6.30;99.90
54642;DHT22;40536;53.194;5.728;2022-11-12T01:26:24;7.60;99.90
54642;DHT22;40536;53.194;5.728;2022-11-12T01:29:02;6.80;99.90
54642;DHT22;40536;53.194;5.728;2022-11-12T01:31:35;6.60;99.90
54642;DHT22;40536;53.194;5.728;2022-11-12T01:34:05;7.50;99.90
54642;DHT22;40536;53.194;5.728;2022-11-12T01:36:38;6.60;99.90
54642;DHT22;40536;53.194;5.728;2022-11-12T01:39:08;6.20;99.90
54642;DHT22;40536;53.194;5.728;2022-11-12T01:41:36;7.10;99.90
54642;DHT22;40536;53.194;5.728;2022-11-12T01:44:12;6.00;99.90
54642;DHT22;40536;53.194;5.728;2022-11-12T01:47:09;5.80;99.90
54642;DHT22;40536;53.194;5.728;2022-11-12T01:49:55;5.90;99.90
54642;DHT22;40536;53.194;5.728;2022-11-12T01:52:42;5.90;99.90
54642;DHT22;40536;53.194;5.728;2022-11-12T01:55:13;5.90;99.90
54642;DHT22;40536;53.194;5.728;2022-11-12T01:57:44;5.80;99.90
54642;DHT22;40536;53.194;5.728;2022-11-12T02:00:13;5.90;99.90
54642;DHT22;40536;53.194;5.728;2022-11-12T02:02:39;5.90;99.90
54642;DHT22;40536;53.194;5.728;2022-11-12T02:05:16;5.90;99.90
54642;DHT22;40536;53.194;5.728;2022-11-12T02:07:45;6.00;99.90
54642;DHT22;40536;53.194;5.728;2022-11-12T02:10:11;6.90;99.90
54642;DHT22;40536;53.194;5.728;2022-11-12T02:12:38;6.90;99.90
54642;DHT22;40536;53.194;5.728;2022-11-12T02:15:24;7.40;99.90
54642;DHT22;40536;53.194;5.728;2022-11-12T02:17:53;6.40;99.90
54642;DHT22;40536;53.194;5.728;2022-11-12T02:20:19;6.50;99.90
54642;DHT22;40536;53.194;5.728;2022-11-12T02:22:45;6.90;99.90
54642;DHT22;40536;53.194;5.728;2022-11-12T02:25:17;6.60;99.90
54642;DHT22;40536;53.194;5.728;2022-11-12T02:27:44;7.80;99.90
54642;DHT22;40536;53.194;5.728;2022-11-12T02:30:10;8.00;99.90
54642;DHT22;40536;53.194;5.728;2022-11-12T02:32:36;6.70;99.90
54642;DHT22;40536;53.194;5.728;2022-11-12T02:35:02;6.80;99.90
54642;DHT22;40536;53.194;5.728;2022-11-12T02:37:28;6.80;99.90
54642;DHT22;40536;53.194;5.728;2022-11-12T02:39:54;6.90;99.90
54642;DHT22;40536;53.194;5.728;2022-11-12T02:42:19;7.40;99.90
54642;DHT22;40536;53.194;5.728;2022-11-12T02:44:45;7.00;99.90
54642;DHT22;40536;53.194;5.728;2022-11-12T02:47:12;7.00;99.90
54642;DHT22;40536;53.194;5.728;2022-11-12T02:49:38;7.10;99.90
54642;DHT22;40536;53.194;5.728;2022-11-12T02:52:04;8.70;99.90
54642;DHT22;40536;53.194;5.728;2022-11-12T02:54:29;7.20;99.90
54642;DHT22;40536;53.194;5.728;2022-11-12T02:56:55;7.30;99.90
54642;DHT22;40536;53.194;5.728;2022-11-12T02:59:25;7.30;99.90
54642;DHT22;40536;53.194;5.728;2022-11-12T03:01:51;7.40;99.90
54642;DHT22;40536;53.194;5.728;2022-11-12T03:04:16;7.30;99.90
54642;DHT22;40536;53.194;5.728;2022-11-12T03:06:42;8.30;99.90
54642;DHT22;40536;53.194;5.728;2022-11-12T03:09:09;7.90;99.90
54642;DHT22;40536;53.194;5.728;2022-11-12T03:11:39;7.40;99.90
54642;DHT22;40536;53.194;5.728;2022-11-12T03:14:08;7.40;99.90
54642;DHT22;40536;53.194;5.728;2022-11-12T03:16:39;7.40;99.90
54642;DHT22;40536;53.194;5.728;2022-11-12T03:19:06;7.40;99.90
54642;DHT22;40536;53.194;5.728;2022-11-12T03:21:33;7.40;99.90
54642;DHT22;40536;53.194;5.728;2022-11-12T03:24:00;7.40;99.90
54642;DHT22;40536;53.194;5.728;2022-11-12T03:26:29;7.50;99.90
54642;DHT22;40536;53.194;5.728;2022-11-12T03:28:54;8.30;99.90
54642;DHT22;40536;53.194;5.728;2022-11-12T03:31:20;8.30;99.90
54642;DHT22;40536;53.194;5.728;2022-11-12T03:33:46;7.80;99.90
54642;DHT22;40536;53.194;5.728;2022-11-12T03:36:11;8.30;99.90
54642;DHT22;40536;53.194;5.728;2022-11-12T03:38:37;8.80;99.90
54642;DHT22;40536;53.194;5.728;2022-11-12T03:41:06;7.50;99.90
54642;DHT22;40536;53.194;5.728;2022-11-12T03:43:31;8.00;99.90
54642;DHT22;40536;53.194;5.728;2022-11-12T03:45:59;7.50;99.90
54642;DHT22;40536;53.194;5.728;2022-11-12T03:48:26;7.50;99.90
54642;DHT22;40536;53.194;5.728;2022-11-12T03:50:56;7.60;99.90
54642;DHT22;40536;53.194;5.728;2022-11-12T03:53:22;8.90;99.90
54642;DHT22;40536;53.194;5.728;2022-11-12T03:55:47;8.50;99.90
54642;DHT22;40536;53.194;5.728;2022-11-12T03:58:17;8.60;99.90
54642;DHT22;40536;53.194;5.728;2022-11-12T04:00:43;7.70;99.90
54642;DHT22;40536;53.194;5.728;2022-11-12T04:03:10;8.80;99.90
54642;DHT22;40536;53.194;5.728;2022-11-12T04:05:36;8.80;99.90
54642;DHT22;40536;53.194;5.728;2022-11-12T04:08:22;8.30;99.90
54642;DHT22;40536;53.194;5.728;2022-11-12T04:11:05;8.00;99.90
54642;DHT22;40536;53.194;5.728;2022-11-12T04:13:34;8.10;99.90
54642;DHT22;40536;53.194;5.728;2022-11-12T04:16:15;7.70;99.90
54642;DHT22;40536;53.194;5.728;2022-11-12T04:19:00;7.80;99.90
54642;DHT22;40536;53.194;5.728;2022-11-12T04:21:50;7.70;99.90
54642;DHT22;40536;53.194;5.728;2022-11-12T04:27:22;7.80;99.90
54642;DHT22;40536;53.194;5.728;2022-11-12T04:29:49;8.70;99.90
54642;DHT22;40536;53.194;5.728;2022-11-12T04:32:54;8.80;99.90
54642;DHT22;40536;53.194;5.728;2022-11-12T04:35:23;7.80;99.90
54642;DHT22;40536;53.194;5.728;2022-11-12T04:37:49;7.80;99.90
54642;DHT22;40536;53.194;5.728;2022-11-12T04:40:17;8.20;99.90
54642;DHT22;40536;53.194;5.728;2022-11-12T04:43:03;8.90;99.90
54642;DHT22;40536;53.194;5.728;2022-11-12T04:45:50;8.90;99.90
54642;DHT22;40536;53.194;5.728;2022-11-12T04:48:16;7.90;99.90
54642;DHT22;40536;53.194;5.728;2022-11-12T04:50:44;7.90;99.90
54642;DHT22;40536;53.194;5.728;2022-11-12T04:53:17;7.90;99.90
54642;DHT22;40536;53.194;5.728;2022-11-12T04:55:42;8.00;99.90
54642;DHT22;40536;53.194;5.728;2022-11-12T04:58:11;8.00;99.90
54642;DHT22;40536;53.194;5.728;2022-11-12T05:00:37;8.20;99.90
54642;DHT22;40536;53.194;5.728;2022-11-12T05:03:02;8.70;99.90
54642;DHT22;40536;53.194;5.728;2022-11-12T05:05:28;8.10;99.90
54642;DHT22;40536;53.194;5.728;2022-11-12T05:07:54;9.50;99.90
54642;DHT22;40536;53.194;5.728;2022-11-12T05:10:19;8.20;99.90
54642;DHT22;40536;53.194;5.728;2022-11-12T05:12:45;8.30;99.90
54642;DHT22;40536;53.194;5.728;2022-11-12T05:15:11;8.30;99.90
54642;DHT22;40536;53.194;5.728;2022-11-12T05:17:41;8.80;99.90
54642;DHT22;40536;53.194;5.728;2022-11-12T05:20:09;8.80;99.90
54642;DHT22;40536;53.194;5.728;2022-11-12T05:22:34;8.50;99.90
54642;DHT22;40536;53.194;5.728;2022-11-12T05:25:00;8.80;99.90
54642;DHT22;40536;53.194;5.728;2022-11-12T05:27:25;8.70;99.90
54642;DHT22;40536;53.194;5.728;2022-11-12T05:29:51;8.90;99.90
54642;DHT22;40536;53.194;5.728;2022-11-12T05:32:17;8.70;99.90
54642;DHT22;40536;53.194;5.728;2022-11-12T05:34:43;8.60;99.90
54642;DHT22;40536;53.194;5.728;2022-11-12T05:37:11;9.40;99.90
54642;DHT22;40536;53.194;5.728;2022-11-12T05:39:37;9.20;99.90
54642;DHT22;40536;53.194;5.728;2022-11-12T05:42:03;9.70;99.90
54642;DHT22;40536;53.194;5.728;2022-11-12T05:44:29;8.70;99.90
54642;DHT22;40536;53.194;5.728;2022-11-12T05:46:55;9.20;99.90
54642;DHT22;40536;53.194;5.728;2022-11-12T05:49:20;8.90;99.90
54642;DHT22;40536;53.194;5.728;2022-11-12T05:51:46;8.80;99.90
54642;DHT22;40536;53.194;5.728;2022-11-12T05:54:12;9.20;99.90
54642;DHT22;40536;53.194;5.728;2022-11-12T05:56:38;8.70;99.90
54642;DHT22;40536;53.194;5.728;2022-11-12T05:59:06;8.80;99.90
54642;DHT22;40536;53.194;5.728;2022-11-12T06:01:33;8.90;99.90
54642;DHT22;40536;53.194;5.728;2022-11-12T06:03:59;9.60;99.90
54642;DHT22;40536;53.194;5.728;2022-11-12T06:06:24;9.20;99.90
54642;DHT22;40536;53.194;5.728;2022-11-12T06:08:50;9.40;99.90
54642;DHT22;40536;53.194;5.728;2022-11-12T06:11:16;9.00;99.90
54642;DHT22;40536;53.194;5.728;2022-11-12T06:13:41;8.80;99.90
54642;DHT22;40536;53.194;5.728;2022-11-12T06:16:07;8.70;99.90
54642;DHT22;40536;53.194;5.728;2022-11-12T06:18:33;9.50;99.90
54642;DHT22;40536;53.194;5.728;2022-11-12T06:21:08;9.00;99.90
54642;DHT22;40536;53.194;5.728;2022-11-12T06:23:58;8.70;99.90
54642;DHT22;40536;53.194;5.728;2022-11-12T06:26:26;9.50;99.90
54642;DHT22;40536;53.194;5.728;2022-11-12T06:28:52;9.20;99.90
54642;DHT22;40536;53.194;5.728;2022-11-12T06:31:18;8.80;99.90
54642;DHT22;40536;53.194;5.728;2022-11-12T06:33:44;8.70;99.90
54642;DHT22;40536;53.194;5.728;2022-11-12T06:36:12;9.20;99.90
54642;DHT22;40536;53.194;5.728;2022-11-12T06:38:39;9.50;99.90
54642;DHT22;40536;53.194;5.728;2022-11-12T06:41:05;8.70;99.90
54642;DHT22;40536;53.194;5.728;2022-11-12T06:43:32;9.30;99.90
54642;DHT22;40536;53.194;5.728;2022-11-12T06:46:00;8.70;99.90
54642;DHT22;40536;53.194;5.728;2022-11-12T06:48:27;8.90;99.90
54642;DHT22;40536;53.194;5.728;2022-11-12T06:50:52;8.80;99.90
54642;DHT22;40536;53.194;5.728;2022-11-12T06:53:18;9.20;99.90
54642;DHT22;40536;53.194;5.728;2022-11-12T06:55:43;9.70;99.90
54642;DHT22;40536;53.194;5.728;2022-11-12T06:58:09;9.70;99.90
54642;DHT22;40536;53.194;5.728;2022-11-12T07:00:35;8.80;99.90
54642;DHT22;40536;53.194;5.728;2022-11-12T07:03:05;8.70;99.90
54642;DHT22;40536;53.194;5.728;2022-11-12T07:05:31;8.70;99.90
54642;DHT22;40536;53.194;5.728;2022-11-12T07:07:59;8.70;99.90
54642;DHT22;40536;53.194;5.728;2022-11-12T07:10:25;8.80;99.90
54642;DHT22;40536;53.194;5.728;2022-11-12T07:12:53;9.10;99.90
54642;DHT22;40536;53.194;5.728;2022-11-12T07:15:18;9.90;99.90
54642;DHT22;40536;53.194;5.728;2022-11-12T07:17:45;8.80;99.90
54642;DHT22;40536;53.194;5.728;2022-11-12T07:20:11;9.60;99.90
54642;DHT22;40536;53.194;5.728;2022-11-12T07:22:37;8.70;99.90
54642;DHT22;40536;53.194;5.728;2022-11-12T07:25:03;8.70;99.90
54642;DHT22;40536;53.194;5.728;2022-11-12T07:27:29;8.70;99.90
54642;DHT22;40536;53.194;5.728;2022-11-12T07:29:55;9.50;99.90
54642;DHT22;40536;53.194;5.728;2022-11-12T07:32:21;8.70;99.90
54642;DHT22;40536;53.194;5.728;2022-11-12T07:34:46;8.80;99.90
54642;DHT22;40536;53.194;5.728;2022-11-12T07:37:12;9.30;99.90
54642;DHT22;40536;53.194;5.728;2022-11-12T07:39:37;9.40;99.90
54642;DHT22;40536;53.194;5.728;2022-11-12T07:42:03;9.60;99.90
54642;DHT22;40536;53.194;5.728;2022-11-12T07:44:29;8.80;99.90
54642;DHT22;40536;53.194;5.728;2022-11-12T07:46:54;8.80;99.90
54642;DHT22;40536;53.194;5.728;2022-11-12T07:49:20;9.60;99.90
54642;DHT22;40536;53.194;5.728;2022-11-12T07:51:46;9.90;99.90
54642;DHT22;40536;53.194;5.728;2022-11-12T07:54:11;8.80;99.90
54642;DHT22;40536;53.194;5.728;2022-11-12T07:56:38;9.00;99.90
54642;DHT22;40536;53.194;5.728;2022-11-12T07:59:03;9.50;99.90
54642;DHT22;40536;53.194;5.728;2022-11-12T08:01:39;9.40;99.90
54642;DHT22;40536;53.194;5.728;2022-11-12T08:04:08;8.80;99.90
54642;DHT22;40536;53.194;5.728;2022-11-12T08:06:34;9.90;99.90
54642;DHT22;40536;53.194;5.728;2022-11-12T08:09:02;9.50;99.90
54642;DHT22;40536;53.194;5.728;2022-11-12T08:11:29;8.70;99.90
54642;DHT22;40536;53.194;5.728;2022-11-12T08:13:55;8.80;99.90
54642;DHT22;40536;53.194;5.728;2022-11-12T08:16:21;9.60;99.90
54642;DHT22;40536;53.194;5.728;2022-11-12T08:18:47;8.70;99.90
54642;DHT22;40536;53.194;5.728;2022-11-12T08:21:14;8.80;99.90
54642;DHT22;40536;53.194;5.728;2022-11-12T08:23:40;9.90;99.90
54642;DHT22;40536;53.194;5.728;2022-11-12T08:26:08;9.30;99.90
54642;DHT22;40536;53.194;5.728;2022-11-12T08:28:36;8.80;99.90
54642;DHT22;40536;53.194;5.728;2022-11-12T08:31:07;8.80;99.90
54642;DHT22;40536;53.194;5.728;2022-11-12T08:33:34;8.90;99.90
54642;DHT22;40536;53.194;5.728;2022-11-12T08:36:13;8.80;99.90
54642;DHT22;40536;53.194;5.728;2022-11-12T08:38:40;8.80;99.90
54642;DHT22;40536;53.194;5.728;2022-11-12T08:41:09;9.00;99.90
54642;DHT22;40536;53.194;5.728;2022-11-12T08:43:35;9.60;99.90
54642;DHT22;40536;53.194;5.728;2022-11-12T08:46:02;8.90;99.90
54642;DHT22;40536;53.194;5.728;2022-11-12T08:48:29;8.80;99.90
54642;DHT22;40536;53.194;5.728;2022-11-12T08:50:55;9.00;99.90
54642;DHT22;40536;53.194;5.728;2022-11-12T08:53:23;8.90;99.90
54642;DHT22;40536;53.194;5.728;2022-11-12T08:55:52;8.80;99.90
54642;DHT22;40536;53.194;5.728;2022-11-12T08:58:18;9.60;99.90
54642;DHT22;40536;53.194;5.728;2022-11-12T09:00:44;9.60;99.90
54642;DHT22;40536;53.194;5.728;2022-11-12T09:03:16;9.60;99.90
54642;DHT22;40536;53.194;5.728;2022-11-12T09:05:42;9.70;99.90
54642;DHT22;40536;53.194;5.728;2022-11-12T09:08:14;8.80;99.90
54642;DHT22;40536;53.194;5.728;2022-11-12T09:10:40;8.80;99.90
54642;DHT22;40536;53.194;5.728;2022-11-12T09:13:06;8.80;99.90
54642;DHT22;40536;53.194;5.728;2022-11-12T09:15:32;8.80;99.90
54642;DHT22;40536;53.194;5.728;2022-11-12T09:18:00;8.80;99.90
54642;DHT22;40536;53.194;5.728;2022-11-12T09:20:26;9.40;99.90
54642;DHT22;40536;53.194;5.728;2022-11-12T09:23:03;8.80;99.90
54642;DHT22;40536;53.194;5.728;2022-11-12T09:25:30;8.80;99.90
54642;DHT22;40536;53.194;5.728;2022-11-12T09:27:56;9.00;99.90
54642;DHT22;40536;53.194;5.728;2022-11-12T09:30:22;8.80;99.90
54642;DHT22;40536;53.194;5.728;2022-11-12T09:32:48;8.80;99.90
54642;DHT22;40536;53.194;5.728;2022-11-12T09:35:13;8.80;99.90
54642;DHT22;40536;53.194;5.728;2022-11-12T09:37:39;8.80;99.90
54642;DHT22;40536;53.194;5.728;2022-11-12T09:40:06;9.80;99.90
54642;DHT22;40536;53.194;5.728;2022-11-12T09:42:34;8.70;99.90
54642;DHT22;40536;53.194;5.728;2022-11-12T09:45:06;9.50;99.90
54642;DHT22;40536;53.194;5.728;2022-11-12T09:47:40;8.60;99.90
54642;DHT22;40536;53.194;5.728;2022-11-12T09:50:18;9.20;99.90
54642;DHT22;40536;53.194;5.728;2022-11-12T09:52:48;8.60;99.90
54642;DHT22;40536;53.194;5.728;2022-11-12T09:55:28;9.70;99.90
54642;DHT22;40536;53.194;5.728;2022-11-12T09:57:55;8.70;99.90
54642;DHT22;40536;53.194;5.728;2022-11-12T10:00:21;8.50;99.90
54642;DHT22;40536;53.194;5.728;2022-11-12T10:05:37;8.40;99.90
54642;DHT22;40536;53.194;5.728;2022-11-12T10:11:20;8.50;99.90
54642;DHT22;40536;53.194;5.728;2022-11-12T10:14:52;8.50;99.90
54642;DHT22;40536;53.194;5.728;2022-11-12T10:25:19;8.50;99.90
54642;DHT22;40536;53.194;5.728;2022-11-12T10:27:45;8.50;99.90
54642;DHT22;40536;53.194;5.728;2022-11-12T10:30:16;8.60;99.90
54642;DHT22;40536;53.194;5.728;2022-11-12T10:32:43;8.50;99.90
54642;DHT22;40536;53.194;5.728;2022-11-12T10:35:12;8.60;99.90
54642;DHT22;40536;53.194;5.728;2022-11-12T10:43:02;8.70;99.90
54642;DHT22;40536;53.194;5.728;2022-11-12T10:45:28;8.70;99.90
54642;DHT22;40536;53.194;5.728;2022-11-12T10:47:55;9.00;99.90
54642;DHT22;40536;53.194;5.728;2022-11-12T10:53:27;8.70;99.90
54642;DHT22;40536;53.194;5.728;2022-11-12T10:55:57;9.20;99.90
54642;DHT22;40536;53.194;5.728;2022-11-12T10:58:23;9.30;99.90
54642;DHT22;40536;53.194;5.728;2022-11-12T11:03:28;8.60;99.90
54642;DHT22;40536;53.194;5.728;2022-11-12T11:05:59;9.00;99.90
54642;DHT22;40536;53.194;5.728;2022-11-12T11:09:21;8.60;99.90
54642;DHT22;40536;53.194;5.728;2022-11-12T11:11:28;9.10;99.90
54642;DHT22;40536;53.194;5.728;2022-11-12T11:13:57;8.60;99.90
54642;DHT22;40536;53.194;5.728;2022-11-12T11:16:51;8.60;99.90
54642;DHT22;40536;53.194;5.728;2022-11-12T11:19:17;8.60;99.90
54642;DHT22;40536;53.194;5.728;2022-11-12T11:29:53;8.70;99.90
54642;DHT22;40536;53.194;5.728;2022-11-12T11:35:57;8.80;99.90
54642;DHT22;40536;53.194;5.728;2022-11-12T11:38:31;8.90;99.90
54642;DHT22;40536;53.194;5.728;2022-11-12T11:54:33;9.20;99.90
54642;DHT22;40536;53.194;5.728;2022-11-12T11:57:10;9.30;99.90
54642;DHT22;40536;53.194;5.728;2022-11-12T12:00:27;9.70;99.90
54642;DHT22;40536;53.194;5.728;2022-11-12T12:05:31;9.50;99.90
54642;DHT22;40536;53.194;5.728;2022-11-12T12:08:07;9.50;99.90
54642;DHT22;40536;53.194;5.728;2022-11-12T12:21:11;9.80;99.90
54642;DHT22;40536;53.194;5.728;2022-11-12T12:26:24;9.90;99.90
54642;DHT22;40536;53.194;5.728;2022-11-12T12:29:09;9.90;99.90
54642;DHT22;40536;53.194;5.728;2022-11-12T12:31:40;10.30;99.90
54642;DHT22;40536;53.194;5.728;2022-11-12T12:34:19;10.10;99.90
54642;DHT22;40536;53.194;5.728;2022-11-12T12:36:48;10.20;99.90
54642;DHT22;40536;53.194;5.728;2022-11-12T12:39:24;10.20;99.90
54642;DHT22;40536;53.194;5.728;2022-11-12T12:41:59;10.30;99.90
54642;DHT22;40536;53.194;5.728;2022-11-12T12:44:30;10.40;99.90
54642;DHT22;40536;53.194;5.728;2022-11-12T12:47:17;10.50;99.90
54642;DHT22;40536;53.194;5.728;2022-11-12T12:49:45;10.50;99.90
54642;DHT22;40536;53.194;5.728;2022-11-12T12:52:13;10.50;99.90
54642;DHT22;40536;53.194;5.728;2022-11-12T12:57:37;10.60;99.90
54642;DHT22;40536;53.194;5.728;2022-11-12T13:00:33;10.60;99.90
54642;DHT22;40536;53.194;5.728;2022-11-12T13:03:00;10.60;99.90
54642;DHT22;40536;53.194;5.728;2022-11-12T13:05:36;10.60;99.90
54642;DHT22;40536;53.194;5.728;2022-11-12T13:08:10;10.70;99.90
54642;DHT22;40536;53.194;5.728;2022-11-12T13:15:52;10.70;99.90
54642;DHT22;40536;53.194;5.728;2022-11-12T13:21:19;10.80;99.90
54642;DHT22;40536;53.194;5.728;2022-11-12T13:23:47;10.90;99.90
54642;DHT22;40536;53.194;5.728;2022-11-12T13:35:14;11.00;99.90
54642;DHT22;40536;53.194;5.728;2022-11-12T13:37:53;10.90;99.90
54642;DHT22;40536;53.194;5.728;2022-11-12T13:40:32;10.90;99.90
54642;DHT22;40536;53.194;5.728;2022-11-12T13:45:33;10.80;99.90
54642;DHT22;40536;53.194;5.728;2022-11-12T13:48:16;10.70;99.90
54642;DHT22;40536;53.194;5.728;2022-11-12T13:50:51;10.70;99.90
54642;DHT22;40536;53.194;5.728;2022-11-12T13:53:22;10.60;99.90
54642;DHT22;40536;53.194;5.728;2022-11-12T13:55:51;10.60;99.90
54642;DHT22;40536;53.194;5.728;2022-11-12T13:58:32;10.80;99.90
54642;DHT22;40536;53.194;5.728;2022-11-12T14:01:00;10.60;99.90
54642;DHT22;40536;53.194;5.728;2022-11-12T14:03:47;10.60;99.90
54642;DHT22;40536;53.194;5.728;2022-11-12T14:17:03;10.20;99.90
54642;DHT22;40536;53.194;5.728;2022-11-12T14:22:34;10.30;99.90
54642;DHT22;40536;53.194;5.728;2022-11-12T14:25:01;10.00;99.90
54642;DHT22;40536;53.194;5.728;2022-11-12T14:30:18;10.30;99.90
54642;DHT22;40536;53.194;5.728;2022-11-12T14:32:47;9.70;99.90
54642;DHT22;40536;53.194;5.728;2022-11-12T14:40:26;9.70;99.90
54642;DHT22;40536;53.194;5.728;2022-11-12T14:42:53;9.60;99.90
54642;DHT22;40536;53.194;5.728;2022-11-12T14:45:20;9.70;99.90
54642;DHT22;40536;53.194;5.728;2022-11-12T14:47:48;9.50;99.90
54642;DHT22;40536;53.194;5.728;2022-11-12T14:50:27;9.40;99.90
54642;DHT22;40536;53.194;5.728;2022-11-12T14:52:59;9.40;99.90
54642;DHT22;40536;53.194;5.728;2022-11-12T14:55:32;9.30;99.90
54642;DHT22;40536;53.194;5.728;2022-11-12T14:57:59;9.30;99.90
54642;DHT22;40536;53.194;5.728;2022-11-12T15:00:39;9.70;99.90
54642;DHT22;40536;53.194;5.728;2022-11-12T15:03:06;9.10;99.90
54642;DHT22;40536;53.194;5.728;2022-11-12T15:08:29;9.00;99.90
54642;DHT22;40536;53.194;5.728;2022-11-12T15:10:56;9.00;99.90
54642;DHT22;40536;53.194;5.728;2022-11-12T15:13:24;9.60;99.90
54642;DHT22;40536;53.194;5.728;2022-11-12T15:15:58;9.00;99.90
54642;DHT22;40536;53.194;5.728;2022-11-12T15:18:27;10.00;99.90
54642;DHT22;40536;53.194;5.728;2022-11-12T15:21:21;8.90;99.90
54642;DHT22;40536;53.194;5.728;2022-11-12T15:26:45;8.80;99.90
54642;DHT22;40536;53.194;5.728;2022-11-12T15:37:07;8.50;99.90
54642;DHT22;40536;53.194;5.728;2022-11-12T15:39:41;9.50;99.90
54642;DHT22;40536;53.194;5.728;2022-11-12T15:44:57;8.40;99.90
54642;DHT22;40536;53.194;5.728;2022-11-12T15:47:23;9.00;99.90
54642;DHT22;40536;53.194;5.728;2022-11-12T15:49:58;8.50;99.90
54642;DHT22;40536;53.194;5.728;2022-11-12T15:52:24;8.20;99.90
54642;DHT22;40536;53.194;5.728;2022-11-12T15:54:50;9.20;99.90
54642;DHT22;40536;53.194;5.728;2022-11-12T15:57:21;8.60;99.90
54642;DHT22;40536;53.194;5.728;2022-11-12T16:00:00;8.10;99.90
54642;DHT22;40536;53.194;5.728;2022-11-12T16:02:28;8.00;99.90
54642;DHT22;40536;53.194;5.728;2022-11-12T16:04:54;8.20;99.90
54642;DHT22;40536;53.194;5.728;2022-11-12T16:07:19;8.00;99.90
54642;DHT22;40536;53.194;5.728;2022-11-12T16:09:45;8.30;99.90
54642;DHT22;40536;53.194;5.728;2022-11-12T16:12:12;8.50;99.90
54642;DHT22;40536;53.194;5.728;2022-11-12T16:14:38;7.90;99.90
54642;DHT22;40536;53.194;5.728;2022-11-12T16:17:07;9.00;99.90
54642;DHT22;40536;53.194;5.728;2022-11-12T16:19:34;8.00;99.90
54642;DHT22;40536;53.194;5.728;2022-11-12T16:22:00;8.00;99.90
54642;DHT22;40536;53.194;5.728;2022-11-12T16:24:26;8.80;99.90
54642;DHT22;40536;53.194;5.728;2022-11-12T16:26:52;8.10;99.90
54642;DHT22;40536;53.194;5.728;2022-11-12T16:29:17;7.80;99.90
54642;DHT22;40536;53.194;5.728;2022-11-12T16:31:43;9.00;99.90
54642;DHT22;40536;53.194;5.728;2022-11-12T16:34:10;9.10;99.90
54642;DHT22;40536;53.194;5.728;2022-11-12T16:36:36;8.70;99.90
54642;DHT22;40536;53.194;5.728;2022-11-12T16:39:03;7.70;99.90
54642;DHT22;40536;53.194;5.728;2022-11-12T16:41:28;8.70;99.90
54642;DHT22;40536;53.194;5.728;2022-11-12T16:43:54;7.70;99.90
54642;DHT22;40536;53.194;5.728;2022-11-12T16:46:34;7.80;99.90
54642;DHT22;40536;53.194;5.728;2022-11-12T16:49:00;7.70;99.90
54642;DHT22;40536;53.194;5.728;2022-11-12T16:51:25;7.80;99.90
54642;DHT22;40536;53.194;5.728;2022-11-12T16:53:51;7.60;99.90
54642;DHT22;40536;53.194;5.728;2022-11-12T16:56:19;7.70;99.90
54642;DHT22;40536;53.194;5.728;2022-11-12T16:58:45;8.00;99.90
54642;DHT22;40536;53.194;5.728;2022-11-12T17:01:24;8.40;99.90
54642;DHT22;40536;53.194;5.728;2022-11-12T17:03:51;8.60;99.90
54642;DHT22;40536;53.194;5.728;2022-11-12T17:06:16;8.60;99.90
54642;DHT22;40536;53.194;5.728;2022-11-12T17:08:42;7.50;99.90
54642;DHT22;40536;53.194;5.728;2022-11-12T17:11:10;7.90;99.90
54642;DHT22;40536;53.194;5.728;2022-11-12T17:13:37;7.40;99.90
54642;DHT22;40536;53.194;5.728;2022-11-12T17:16:04;7.40;99.90
54642;DHT22;40536;53.194;5.728;2022-11-12T17:18:31;7.40;99.90
54642;DHT22;40536;53.194;5.728;2022-11-12T17:21:07;7.40;99.90
54642;DHT22;40536;53.194;5.728;2022-11-12T17:23:34;7.40;99.90
54642;DHT22;40536;53.194;5.728;2022-11-12T17:26:03;7.90;99.90
54642;DHT22;40536;53.194;5.728;2022-11-12T17:28:32;8.60;99.90
54642;DHT22;40536;53.194;5.728;2022-11-12T17:31:19;7.50;99.90
54642;DHT22;40536;53.194;5.728;2022-11-12T17:33:48;7.80;99.90
54642;DHT22;40536;53.194;5.728;2022-11-12T17:36:17;8.80;99.90
54642;DHT22;40536;53.194;5.728;2022-11-12T17:38:44;7.40;99.90
54642;DHT22;40536;53.194;5.728;2022-11-12T17:41:11;7.40;99.90
54642;DHT22;40536;53.194;5.728;2022-11-12T17:43:40;7.80;99.90
54642;DHT22;40536;53.194;5.728;2022-11-12T17:46:08;7.90;99.90
54642;DHT22;40536;53.194;5.728;2022-11-12T17:48:35;7.40;99.90
54642;DHT22;40536;53.194;5.728;2022-11-12T17:51:12;8.40;99.90
54642;DHT22;40536;53.194;5.728;2022-11-12T17:53:38;7.30;99.90
54642;DHT22;40536;53.194;5.728;2022-11-12T17:56:07;8.40;99.90
54642;DHT22;40536;53.194;5.728;2022-11-12T17:58:33;7.20;99.90
54642;DHT22;40536;53.194;5.728;2022-11-12T18:03:33;7.20;99.90
54642;DHT22;40536;53.194;5.728;2022-11-12T18:06:05;7.10;99.90
54642;DHT22;40536;53.194;5.728;2022-11-12T18:08:31;7.20;99.90
54642;DHT22;40536;53.194;5.728;2022-11-12T18:10:56;7.30;99.90
54642;DHT22;40536;53.194;5.728;2022-11-12T18:13:25;7.50;99.90